createdAt,value
2019-01-05T00:02:23.749Z,3.55
2019-01-05T00:05:19.740Z,3.77
2019-01-05T00:08:19.601Z,3.35
2019-01-05T00:11:24.696Z,3.87
2019-01-05T00:14:10.078Z,4.10
2019-01-05T00:17:00.441Z,3.25
2019-01-05T00:19:47.286Z,4.20
2019-01-05T00:22:33.971Z,3.77
2019-01-05T00:25:19.472Z,3.25
2019-01-05T00:28:05.033Z,4.15
2019-01-05T00:30:54.628Z,4.03
2019-01-05T00:33:53.419Z,4.28
2019-01-05T00:36:40.232Z,3.95
2019-01-05T00:39:33.084Z,3.55
2019-01-05T00:42:25.937Z,4.12
2019-01-05T00:45:13.943Z,3.95
2019-01-05T00:47:59.355Z,3.90
2019-01-05T00:50:52.003Z,4.00
2019-01-05T00:53:38.812Z,4.80
2019-01-05T00:56:37.890Z,4.20
2019-01-05T00:59:24.214Z,4.80
2019-01-05T01:02:09.898Z,5.05
2019-01-05T01:05:05.618Z,4.80
2019-01-05T01:07:58.577Z,4.95
2019-01-05T01:10:52.804Z,4.00
2019-01-05T01:13:54.725Z,4.50
2019-01-05T01:16:47.551Z,4.65
2019-01-05T01:19:34.091Z,4.50
2019-01-05T01:22:20.890Z,4.58
2019-01-05T01:25:06.781Z,4.90
2019-01-05T01:27:52.261Z,4.35
2019-01-05T01:30:38.973Z,4.20
2019-01-05T01:33:40.941Z,5.90
2019-01-05T01:36:36.156Z,5.45
2019-01-05T01:39:21.729Z,5.20
2019-01-05T01:42:17.553Z,4.72
2019-01-05T01:45:04.362Z,5.20
2019-01-05T01:48:01.232Z,5.45
2019-01-05T01:51:00.104Z,4.50
2019-01-05T01:54:01.125Z,5.42
2019-01-05T01:56:46.522Z,4.65
2019-01-05T01:59:31.906Z,5.17
2019-01-05T02:02:17.488Z,5.00
2019-01-05T02:05:22.423Z,5.70
2019-01-05T02:08:09.335Z,5.00
2019-01-05T02:10:55.520Z,4.65
2019-01-05T02:13:42.219Z,5.22
2019-01-05T02:16:30.782Z,4.90
2019-01-05T02:19:32.554Z,5.67
2019-01-05T02:22:18.033Z,4.97
2019-01-05T02:25:07.106Z,5.22
2019-01-05T02:28:06.299Z,5.37
2019-01-05T02:30:52.980Z,5.15
2019-01-05T02:33:50.750Z,5.70
2019-01-05T02:36:49.780Z,4.75
2019-01-05T02:39:51.944Z,4.85
2019-01-05T02:42:45.820Z,5.22
2019-01-05T02:45:41.740Z,5.20
2019-01-05T02:48:31.323Z,4.83
2019-01-05T02:51:24.073Z,4.87
2019-01-05T02:54:07.812Z,5.25
2019-01-05T02:57:09.982Z,5.00
2019-01-05T03:00:09.081Z,5.55
2019-01-05T03:02:58.656Z,5.30
2019-01-05T03:05:45.472Z,4.95
2019-01-05T03:08:35.249Z,5.95
2019-01-05T03:11:16.334Z,6.05
2019-01-05T03:14:01.807Z,5.30
2019-01-05T03:16:51.486Z,5.30
2019-01-05T03:19:51.394Z,5.85
2019-01-05T03:22:38.114Z,5.95
2019-01-05T03:25:27.056Z,5.70
2019-01-05T03:28:24.312Z,6.05
2019-01-05T03:31:12.933Z,5.70
2019-01-05T03:33:59.437Z,6.20
2019-01-05T03:36:55.388Z,6.22
2019-01-05T03:39:41.822Z,5.78
2019-01-05T03:42:31.393Z,5.80
2019-01-05T03:45:18.414Z,6.28
2019-01-05T03:48:08.597Z,5.47
2019-01-05T03:50:55.310Z,5.65
2019-01-05T03:53:40.865Z,4.95
2019-01-05T03:56:33.100Z,5.08
2019-01-05T03:59:23.010Z,5.40
2019-01-05T04:02:08.380Z,5.80
2019-01-05T04:04:53.769Z,5.25
2019-01-05T04:07:49.663Z,6.20
2019-01-05T04:10:39.628Z,4.72
2019-01-05T04:13:26.488Z,5.40
2019-01-05T04:16:06.441Z,4.90
2019-01-05T04:18:51.996Z,5.12
2019-01-05T04:21:41.909Z,5.25
2019-01-05T04:24:28.408Z,5.12
2019-01-05T04:27:21.464Z,5.20
2019-01-05T04:30:08.282Z,5.67
2019-01-05T04:32:53.657Z,6.22
2019-01-05T04:35:55.621Z,5.22
2019-01-05T04:38:54.412Z,5.60
2019-01-05T04:41:37.233Z,5.40
2019-01-05T04:44:27.024Z,5.50
2019-01-05T04:47:12.908Z,5.65
2019-01-05T04:49:58.250Z,5.58
2019-01-05T04:52:43.761Z,5.10
2019-01-05T04:55:39.582Z,5.50
2019-01-05T04:58:32.227Z,5.72
2019-01-05T05:01:18.940Z,6.53
2019-01-05T05:04:05.750Z,5.50
2019-01-05T05:07:09.068Z,6.20
2019-01-05T05:09:58.831Z,6.70
2019-01-05T05:12:44.415Z,5.58
2019-01-05T05:15:32.630Z,6.33
2019-01-05T05:18:14.731Z,6.40
2019-01-05T05:21:04.545Z,6.25
2019-01-05T05:23:49.914Z,5.90
2019-01-05T05:26:36.830Z,5.90
2019-01-05T05:29:22.481Z,6.03
2019-01-05T05:32:27.554Z,5.37
2019-01-05T05:35:19.898Z,5.55
2019-01-05T05:38:24.931Z,6.35
2019-01-05T05:41:10.077Z,6.15
2019-01-05T05:43:55.481Z,6.50
2019-01-05T05:46:57.217Z,5.78
2019-01-05T05:49:42.594Z,6.45
2019-01-05T05:52:32.097Z,5.60
2019-01-05T05:55:17.575Z,6.03
2019-01-05T05:58:01.288Z,5.15
2019-01-05T06:00:57.033Z,5.87
2019-01-05T06:03:43.847Z,5.75
2019-01-05T06:06:30.860Z,5.37
2019-01-05T06:09:26.376Z,6.65
2019-01-05T06:12:19.231Z,5.50
2019-01-05T06:15:14.315Z,7.22
2019-01-05T06:18:01.427Z,5.55
2019-01-05T06:21:06.801Z,5.95
2019-01-05T06:24:08.663Z,5.28
2019-01-05T06:26:53.938Z,5.22
2019-01-05T06:29:36.146Z,5.83
2019-01-05T06:32:22.856Z,5.83
2019-01-05T06:35:12.018Z,6.17
2019-01-05T06:38:01.870Z,6.08
2019-01-05T06:40:47.456Z,6.90
2019-01-05T06:43:34.407Z,6.90
2019-01-05T06:46:39.331Z,6.00
2019-01-05T06:49:25.035Z,6.35
2019-01-05T06:52:24.091Z,5.72
2019-01-05T06:55:09.496Z,6.85
2019-01-05T06:58:10.312Z,6.40
2019-01-05T07:00:52.206Z,7.42
2019-01-05T07:03:39.044Z,6.55
2019-01-05T07:06:24.725Z,6.67
2019-01-05T07:09:10.105Z,6.60
2019-01-05T07:12:02.857Z,7.05
2019-01-05T07:15:03.248Z,7.05
2019-01-05T07:17:58.905Z,6.35
2019-01-05T07:20:57.677Z,6.80
2019-01-05T07:23:43.079Z,6.87
2019-01-05T07:26:29.956Z,7.15
2019-01-05T07:29:16.800Z,6.70
2019-01-05T07:31:57.959Z,6.87
2019-01-05T07:34:47.553Z,6.35
2019-01-05T07:37:49.386Z,6.05
2019-01-05T07:40:39.305Z,5.72
2019-01-05T07:43:35.501Z,6.17
2019-01-05T07:46:35.141Z,5.58
2019-01-05T07:49:22.158Z,5.47
2019-01-05T07:52:27.095Z,5.55
2019-01-05T07:55:24.616Z,5.20
2019-01-05T07:58:21.405Z,5.60
2019-01-05T08:01:07.743Z,6.25
2019-01-05T08:03:53.050Z,5.62
2019-01-05T08:06:38.661Z,5.12
2019-01-05T08:09:25.472Z,5.15
2019-01-05T08:12:11.055Z,5.00
2019-01-05T08:14:56.537Z,5.30
2019-01-05T08:17:52.152Z,5.47
2019-01-05T08:20:37.837Z,5.40
2019-01-05T08:23:25.775Z,5.17
2019-01-05T08:26:15.658Z,6.87
2019-01-05T08:29:09.403Z,6.40
2019-01-05T08:31:55.293Z,5.90
2019-01-05T08:34:52.798Z,6.30
2019-01-05T08:37:42.571Z,6.57
2019-01-05T08:40:38.796Z,5.40
2019-01-05T08:43:25.373Z,6.00
2019-01-05T08:46:15.257Z,5.53
2019-01-05T08:49:12.445Z,6.13
2019-01-05T08:52:09.438Z,6.70
2019-01-05T08:54:54.973Z,7.37
2019-01-05T08:57:40.042Z,6.50
2019-01-05T09:00:25.399Z,7.30
2019-01-05T09:03:18.171Z,7.63
2019-01-05T09:06:04.853Z,8.97
2019-01-05T09:08:50.257Z,7.58
2019-01-05T09:11:35.637Z,8.75
2019-01-05T09:14:31.429Z,8.63
2019-01-05T09:17:23.973Z,8.15
2019-01-05T09:20:17.033Z,6.75
2019-01-05T09:23:04.749Z,6.83
2019-01-05T09:25:54.368Z,8.17
2019-01-05T09:28:35.803Z,10.50
2019-01-05T09:31:21.542Z,8.20
2019-01-05T09:34:26.678Z,6.93
2019-01-05T09:37:12.161Z,10.40
2019-01-05T09:40:09.186Z,8.70
2019-01-05T09:42:54.700Z,9.17
2019-01-05T09:45:50.309Z,9.10
2019-01-05T09:48:37.120Z,10.37
2019-01-05T09:51:32.712Z,10.17
2019-01-05T09:54:21.415Z,10.47
2019-01-05T09:57:06.440Z,10.23
2019-01-05T10:00:03.843Z,10.20
2019-01-05T10:02:49.305Z,11.83
2019-01-05T10:05:35.949Z,9.93
2019-01-05T10:08:22.722Z,11.20
2019-01-05T10:11:08.304Z,11.60
2019-01-05T10:13:57.877Z,11.00
2019-01-05T10:16:56.643Z,11.60
2019-01-05T10:19:47.653Z,11.37
2019-01-05T10:22:50.571Z,10.53
2019-01-05T10:25:37.385Z,11.70
2019-01-05T10:28:31.379Z,11.23
2019-01-05T10:31:17.897Z,10.93
2019-01-05T10:34:04.645Z,10.30
2019-01-05T10:37:01.941Z,11.63
2019-01-05T10:39:54.584Z,11.93
2019-01-05T10:42:53.372Z,10.93
2019-01-05T10:45:52.649Z,10.90
2019-01-05T10:48:51.444Z,10.83
2019-01-05T10:51:56.275Z,11.47
2019-01-05T10:54:41.985Z,11.73
2019-01-05T10:57:46.797Z,11.07
2019-01-05T11:00:48.790Z,10.87
2019-01-05T11:03:34.347Z,11.70
2019-01-05T11:06:36.129Z,10.33
2019-01-05T11:09:22.520Z,10.63
2019-01-05T11:12:18.355Z,11.03
2019-01-05T11:15:03.733Z,10.90
2019-01-05T11:17:58.836Z,12.00
2019-01-05T11:20:45.624Z,11.70
2019-01-05T11:23:38.607Z,11.20
2019-01-05T11:26:24.266Z,11.37
2019-01-05T11:29:17.253Z,11.53
2019-01-05T11:32:03.439Z,11.33
2019-01-05T11:35:08.582Z,11.43
2019-01-05T11:38:01.307Z,12.83
2019-01-05T11:40:48.323Z,13.30
2019-01-05T11:43:33.828Z,11.97
2019-01-05T11:46:23.305Z,12.47
2019-01-05T11:49:10.102Z,12.23
2019-01-05T11:51:56.310Z,12.27
2019-01-05T11:54:41.899Z,9.70
2019-01-05T11:57:46.840Z,10.80
2019-01-05T12:00:32.515Z,10.87
2019-01-05T12:03:19.202Z,11.73
2019-01-05T12:06:08.874Z,11.13
2019-01-05T12:08:54.687Z,11.10
2019-01-05T12:11:44.443Z,9.90
2019-01-05T12:14:30.143Z,10.43
2019-01-05T12:17:20.755Z,12.20
2019-01-05T12:20:19.621Z,12.87
2019-01-05T12:23:09.710Z,12.10
2019-01-05T12:25:54.377Z,11.30
2019-01-05T12:28:41.181Z,11.03
2019-01-05T12:31:27.100Z,11.27
2019-01-05T12:34:12.783Z,10.50
2019-01-05T12:37:02.463Z,11.33
2019-01-05T12:39:58.665Z,10.60
2019-01-05T12:42:46.201Z,11.50
2019-01-05T12:45:37.668Z,11.30
2019-01-05T12:48:23.810Z,12.10
2019-01-05T12:51:11.136Z,9.70
2019-01-05T12:53:56.930Z,10.30
2019-01-05T12:56:39.125Z,11.03
2019-01-05T12:59:34.782Z,10.80
2019-01-05T13:02:30.974Z,11.37
2019-01-05T13:05:23.751Z,10.27
2019-01-05T13:08:10.667Z,9.90
2019-01-05T13:10:57.373Z,11.20
2019-01-05T13:13:59.522Z,10.93
2019-01-05T13:16:54.233Z,11.57
2019-01-05T13:19:55.800Z,11.07
2019-01-05T13:22:44.236Z,12.17
2019-01-05T13:25:40.154Z,11.63
2019-01-05T13:28:24.605Z,12.30
2019-01-05T13:31:10.286Z,11.53
2019-01-05T13:34:09.208Z,12.80
2019-01-05T13:36:54.584Z,12.07
2019-01-05T13:39:59.600Z,13.00
2019-01-05T13:42:45.616Z,13.10
2019-01-05T13:45:31.094Z,11.97
2019-01-05T13:48:25.418Z,12.50
2019-01-05T13:51:10.870Z,11.90
2019-01-05T13:54:16.108Z,12.00
2019-01-05T13:57:02.816Z,12.45
2019-01-05T13:59:48.815Z,11.27
2019-01-05T14:02:47.687Z,11.55
2019-01-05T14:05:34.925Z,11.43
2019-01-05T14:08:24.889Z,11.90
2019-01-05T14:11:23.904Z,12.35
2019-01-05T14:14:25.851Z,11.63
2019-01-05T14:17:28.246Z,11.85
2019-01-05T14:20:33.389Z,10.78
2019-01-05T14:23:29.416Z,10.05
2019-01-05T14:26:08.115Z,8.85
2019-01-05T14:28:53.825Z,9.58
2019-01-05T14:31:55.892Z,9.63
2019-01-05T14:34:48.514Z,10.48
2019-01-05T14:37:56.241Z,8.88
2019-01-05T14:40:43.022Z,7.58
2019-01-05T14:43:28.432Z,7.80
2019-01-05T14:46:13.907Z,8.53
2019-01-05T14:49:19.152Z,7.87
2019-01-05T14:52:00.316Z,8.20
2019-01-05T14:54:45.914Z,7.33
2019-01-05T14:57:31.394Z,6.47
2019-01-05T15:00:30.286Z,5.60
2019-01-05T15:03:31.048Z,5.60
2019-01-05T15:06:17.836Z,5.92
2019-01-05T15:09:19.599Z,6.35
2019-01-05T15:12:06.426Z,6.67
2019-01-05T15:15:00.592Z,7.25
2019-01-05T15:17:50.348Z,5.50
2019-01-05T15:20:37.140Z,5.58
2019-01-05T15:23:22.533Z,6.28
2019-01-05T15:26:12.347Z,5.42
2019-01-05T15:28:59.153Z,5.60
2019-01-05T15:31:44.838Z,6.05
2019-01-05T15:34:30.322Z,7.95
2019-01-05T15:37:32.184Z,9.43
2019-01-05T15:40:33.946Z,9.35
2019-01-05T15:43:19.224Z,7.97
2019-01-05T15:46:14.842Z,8.55
2019-01-05T15:49:02.635Z,12.37
2019-01-05T15:51:48.358Z,12.23
2019-01-05T15:54:44.487Z,13.25
2019-01-05T15:57:29.942Z,12.20
2019-01-05T16:00:16.883Z,14.45
2019-01-05T16:03:16.775Z,13.48
2019-01-05T16:06:09.721Z,12.95
2019-01-05T16:08:47.964Z,12.40
2019-01-05T16:11:51.499Z,12.65
2019-01-05T16:14:37.049Z,12.10
2019-01-05T16:17:43.123Z,12.37
2019-01-05T16:20:28.769Z,11.25
2019-01-05T16:23:18.482Z,11.15
2019-01-05T16:26:03.958Z,12.20
2019-01-05T16:29:02.832Z,12.88
2019-01-05T16:31:50.985Z,12.07
2019-01-05T16:34:37.731Z,12.15
2019-01-05T16:37:25.950Z,12.23
2019-01-05T16:40:07.231Z,11.53
2019-01-05T16:43:03.259Z,12.00
2019-01-05T16:45:48.736Z,11.33
2019-01-05T16:48:34.523Z,11.43
2019-01-05T16:51:20.206Z,11.00
2019-01-05T16:54:23.669Z,10.50
2019-01-05T16:57:10.160Z,9.33
2019-01-05T17:00:06.038Z,8.83
2019-01-05T17:02:52.923Z,8.45
2019-01-05T17:05:55.100Z,8.28
2019-01-05T17:08:47.981Z,9.15
2019-01-05T17:11:34.790Z,9.70
2019-01-05T17:14:24.997Z,9.85
2019-01-05T17:17:09.843Z,9.73
2019-01-05T17:20:02.491Z,9.55
2019-01-05T17:22:55.871Z,9.63
2019-01-05T17:25:42.769Z,8.75
2019-01-05T17:28:34.082Z,8.35
2019-01-05T17:31:19.354Z,8.23
2019-01-05T17:34:15.184Z,9.03
2019-01-05T17:37:17.463Z,10.72
2019-01-05T17:40:22.700Z,10.25
2019-01-05T17:43:21.370Z,10.60
2019-01-05T17:46:08.627Z,12.03
2019-01-05T17:48:55.524Z,12.60
2019-01-05T17:51:57.357Z,11.22
2019-01-05T17:54:56.076Z,11.05
2019-01-05T17:57:41.760Z,10.68
2019-01-05T18:00:40.889Z,10.13
2019-01-05T18:03:33.691Z,10.50
2019-01-05T18:06:18.050Z,12.45
2019-01-05T18:08:58.325Z,12.05
2019-01-05T18:11:52.099Z,11.45
2019-01-05T18:14:45.155Z,11.60
2019-01-05T18:17:47.120Z,11.95
2019-01-05T18:20:34.137Z,12.58
2019-01-05T18:23:21.125Z,12.90
2019-01-05T18:26:26.192Z,12.68
2019-01-05T18:29:22.215Z,13.25
2019-01-05T18:32:08.309Z,14.60
2019-01-05T18:34:53.683Z,11.38
2019-01-05T18:37:52.519Z,14.80
2019-01-05T18:40:57.521Z,16.80
2019-01-05T18:43:39.024Z,26.15
2019-01-05T18:46:44.083Z,26.70
2019-01-05T18:49:33.729Z,12.47
2019-01-05T18:52:26.336Z,12.53
2019-01-05T18:55:12.064Z,13.18
2019-01-05T18:58:17.214Z,16.00
2019-01-05T19:01:05.344Z,16.80
2019-01-05T19:03:51.238Z,13.00
2019-01-05T19:06:44.715Z,15.38
2019-01-05T19:09:49.625Z,16.87
2019-01-05T19:12:35.011Z,16.82
2019-01-05T19:15:28.217Z,18.20
2019-01-05T19:18:24.335Z,19.40
2019-01-05T19:21:09.715Z,22.48
2019-01-05T19:23:55.383Z,14.85
2019-01-05T19:26:57.230Z,14.13
2019-01-05T19:29:55.688Z,13.90
2019-01-05T19:32:42.603Z,15.80
2019-01-05T19:35:35.525Z,17.30
2019-01-05T19:38:20.332Z,17.00
2019-01-05T19:41:12.895Z,14.15
2019-01-05T19:44:01.237Z,14.40
2019-01-05T19:46:49.563Z,13.35
2019-01-05T19:49:54.502Z,13.18
2019-01-05T19:52:40.002Z,15.05
2019-01-05T19:55:41.967Z,12.15
2019-01-05T19:58:27.347Z,10.72
2019-01-05T20:01:23.065Z,12.00
2019-01-05T20:04:24.974Z,12.00
2019-01-05T20:07:15.835Z,11.80
2019-01-05T20:10:12.174Z,11.20
2019-01-05T20:13:14.240Z,15.15
2019-01-05T20:15:57.160Z,12.30
2019-01-05T20:18:58.600Z,11.40
2019-01-05T20:21:45.299Z,11.53
2019-01-05T20:24:44.524Z,11.88
2019-01-05T20:27:31.386Z,12.23
2019-01-05T20:30:30.332Z,12.93
2019-01-05T20:33:15.683Z,12.95
2019-01-05T20:36:01.088Z,12.10
2019-01-05T20:39:03.055Z,15.40
2019-01-05T20:41:55.805Z,13.00
2019-01-05T20:44:41.695Z,13.85
2019-01-05T20:47:40.589Z,21.87
2019-01-05T20:50:26.274Z,11.08
2019-01-05T20:53:22.096Z,10.68
2019-01-05T20:56:08.551Z,10.48
2019-01-05T20:58:55.412Z,11.50
2019-01-05T21:01:41.857Z,17.77
2019-01-05T21:04:31.901Z,12.15
2019-01-05T21:07:30.591Z,10.45
2019-01-05T21:10:26.723Z,11.48
2019-01-05T21:13:13.635Z,12.75
2019-01-05T21:15:59.217Z,12.37
2019-01-05T21:18:45.188Z,11.35
2019-01-05T21:21:32.564Z,11.05
2019-01-05T21:24:19.343Z,12.45
2019-01-05T21:27:18.750Z,13.10
2019-01-05T21:30:03.633Z,13.25
2019-01-05T21:32:49.505Z,19.95
2019-01-05T21:35:35.299Z,12.18
2019-01-05T21:38:21.286Z,14.50
2019-01-05T21:41:14.449Z,43.02
2019-01-05T21:44:02.587Z,35.25
2019-01-05T21:46:53.846Z,28.50
2019-01-05T21:49:39.259Z,19.75
2019-01-05T21:52:24.946Z,11.12
2019-01-05T21:55:10.547Z,9.48
2019-01-05T21:57:55.905Z,10.28
2019-01-05T22:00:42.020Z,11.15
2019-01-05T22:03:31.889Z,12.33
2019-01-05T22:06:18.914Z,11.20
2019-01-05T22:09:15.256Z,10.85
2019-01-05T22:12:02.161Z,11.22
2019-01-05T22:15:02.417Z,9.75
2019-01-05T22:17:52.788Z,8.43
2019-01-05T22:20:44.697Z,9.60
2019-01-05T22:23:38.486Z,9.35
2019-01-05T22:26:37.388Z,9.75
2019-01-05T22:29:22.869Z,9.40
2019-01-05T22:32:08.555Z,9.60
2019-01-05T22:34:55.877Z,7.53
2019-01-05T22:37:43.307Z,8.00
2019-01-05T22:40:29.417Z,7.62
2019-01-05T22:43:22.972Z,7.72
2019-01-05T22:46:10.084Z,9.28
2019-01-05T22:49:11.607Z,8.60
2019-01-05T22:51:57.633Z,10.68
2019-01-05T22:54:44.036Z,10.90
2019-01-05T22:57:29.928Z,11.00
2019-01-05T23:00:16.750Z,10.90
2019-01-05T23:03:15.835Z,7.83
2019-01-05T23:06:03.874Z,6.08
2019-01-05T23:08:56.940Z,6.22
2019-01-05T23:12:01.885Z,8.55
2019-01-05T23:14:47.629Z,9.73
2019-01-05T23:17:33.137Z,12.07
2019-01-05T23:20:18.613Z,11.83
2019-01-05T23:23:08.088Z,11.28
2019-01-05T23:25:57.869Z,12.70
2019-01-05T23:28:40.554Z,12.73
2019-01-05T23:31:33.235Z,12.30
2019-01-05T23:34:19.741Z,10.63
2019-01-05T23:37:06.461Z,12.60
2019-01-05T23:40:09.128Z,11.80
2019-01-05T23:42:56.017Z,12.95
2019-01-05T23:45:56.663Z,13.15
2019-01-05T23:49:01.817Z,13.08
2019-01-05T23:51:51.495Z,13.05
2019-01-05T23:54:34.400Z,14.58
2019-01-05T23:57:20.007Z,13.05
